sensor_id;sensor_type;location;lat;lon;timestamp;pressure;altitude;pressure_sealevel;temperature;humidity
57791;BME280;43621;51.798;21.588;2023-05-18T00:03:44;100535.34;;;9.76;69.26
57791;BME280;43621;51.798;21.588;2023-05-18T00:07:45;100533.27;;;9.67;69.09
57791;BME280;43621;51.798;21.588;2023-05-18T00:11:46;100532.30;;;9.55;68.77
57791;BME280;43621;51.798;21.588;2023-05-18T00:15:48;100535.91;;;9.49;68.67
57791;BME280;43621;51.798;21.588;2023-05-18T00:19:49;100534.91;;;9.47;68.58
57791;BME280;43621;51.798;21.588;2023-05-18T00:23:50;100534.67;;;9.41;68.54
57791;BME280;43621;51.798;21.588;2023-05-18T00:27:52;100536.41;;;9.34;68.44
57791;BME280;43621;51.798;21.588;2023-05-18T00:31:53;100535.86;;;9.27;68.22
57791;BME280;43621;51.798;21.588;2023-05-18T00:35:54;100538.12;;;9.21;68.19
57791;BME280;43621;51.798;21.588;2023-05-18T00:39:57;100543.69;;;9.14;68.05
57791;BME280;43621;51.798;21.588;2023-05-18T00:43:59;100550.93;;;9.08;67.94
57791;BME280;43621;51.798;21.588;2023-05-18T00:48:00;100557.27;;;9.03;68.09
57791;BME280;43621;51.798;21.588;2023-05-18T00:52:02;100560.41;;;8.98;67.97
57791;BME280;43621;51.798;21.588;2023-05-18T00:56:06;100565.95;;;8.94;68.02
57791;BME280;43621;51.798;21.588;2023-05-18T01:00:08;100566.36;;;8.95;68.01
57791;BME280;43621;51.798;21.588;2023-05-18T01:04:11;100571.09;;;8.99;67.95
57791;BME280;43621;51.798;21.588;2023-05-18T01:08:14;100576.72;;;9.01;67.84
57791;BME280;43621;51.798;21.588;2023-05-18T01:12:42;100583.35;;;8.98;67.76
57791;BME280;43621;51.798;21.588;2023-05-18T01:21:37;100594.88;;;8.89;67.77
57791;BME280;43621;51.798;21.588;2023-05-18T01:29:54;100616.77;;;8.89;67.80
57791;BME280;43621;51.798;21.588;2023-05-18T01:33:56;100620.16;;;8.88;67.61
57791;BME280;43621;51.798;21.588;2023-05-18T01:37:57;100619.79;;;8.88;67.65
57791;BME280;43621;51.798;21.588;2023-05-18T01:42:06;100618.61;;;8.88;67.57
57791;BME280;43621;51.798;21.588;2023-05-18T01:50:34;100622.07;;;8.84;67.59
57791;BME280;43621;51.798;21.588;2023-05-18T01:54:42;100624.07;;;8.85;67.67
57791;BME280;43621;51.798;21.588;2023-05-18T01:58:44;100616.98;;;8.84;67.56
57791;BME280;43621;51.798;21.588;2023-05-18T02:02:45;100614.75;;;8.81;67.40
57791;BME280;43621;51.798;21.588;2023-05-18T02:06:46;100616.77;;;8.80;67.31
57791;BME280;43621;51.798;21.588;2023-05-18T02:10:47;100619.30;;;8.81;67.35
57791;BME280;43621;51.798;21.588;2023-05-18T02:14:49;100622.18;;;8.82;67.36
57791;BME280;43621;51.798;21.588;2023-05-18T02:18:50;100630.46;;;8.81;67.34
57791;BME280;43621;51.798;21.588;2023-05-18T02:22:52;100633.30;;;8.78;67.18
57791;BME280;43621;51.798;21.588;2023-05-18T02:26:54;100633.31;;;8.75;67.19
57791;BME280;43621;51.798;21.588;2023-05-18T02:31:04;100632.37;;;8.72;67.12
57791;BME280;43621;51.798;21.588;2023-05-18T02:35:07;100631.73;;;8.68;67.05
57791;BME280;43621;51.798;21.588;2023-05-18T02:39:08;100630.27;;;8.64;67.02
57791;BME280;43621;51.798;21.588;2023-05-18T02:43:10;100633.30;;;8.66;67.03
57791;BME280;43621;51.798;21.588;2023-05-18T02:47:13;100636.30;;;8.68;67.09
57791;BME280;43621;51.798;21.588;2023-05-18T02:51:14;100633.73;;;8.69;67.11
57791;BME280;43621;51.798;21.588;2023-05-18T02:55:16;100635.88;;;8.69;66.97
57791;BME280;43621;51.798;21.588;2023-05-18T02:59:17;100639.42;;;8.65;66.94
57791;BME280;43621;51.798;21.588;2023-05-18T03:03:18;100643.67;;;8.67;67.01
57791;BME280;43621;51.798;21.588;2023-05-18T03:07:19;100645.65;;;8.73;67.01
57791;BME280;43621;51.798;21.588;2023-05-18T03:11:21;100644.03;;;8.79;66.93
57791;BME280;43621;51.798;21.588;2023-05-18T03:15:23;100650.58;;;8.82;66.85
57791;BME280;43621;51.798;21.588;2023-05-18T03:19:24;100654.30;;;8.86;66.80
57791;BME280;43621;51.798;21.588;2023-05-18T03:23:26;100653.95;;;8.90;66.73
57791;BME280;43621;51.798;21.588;2023-05-18T03:27:27;100657.98;;;8.97;66.76
57791;BME280;43621;51.798;21.588;2023-05-18T03:31:29;100660.13;;;9.08;66.76
57791;BME280;43621;51.798;21.588;2023-05-18T03:35:30;100661.07;;;9.19;66.57
57791;BME280;43621;51.798;21.588;2023-05-18T03:39:31;100662.77;;;9.29;66.48
57791;BME280;43621;51.798;21.588;2023-05-18T03:43:32;100661.17;;;9.36;66.45
57791;BME280;43621;51.798;21.588;2023-05-18T03:47:33;100659.31;;;9.42;66.21
57791;BME280;43621;51.798;21.588;2023-05-18T03:51:35;100665.79;;;9.47;66.13
57791;BME280;43621;51.798;21.588;2023-05-18T03:55:36;100667.45;;;9.52;66.14
57791;BME280;43621;51.798;21.588;2023-05-18T03:59:37;100671.17;;;9.56;65.86
57791;BME280;43621;51.798;21.588;2023-05-18T04:03:39;100674.55;;;9.64;65.72
57791;BME280;43621;51.798;21.588;2023-05-18T04:07:40;100676.72;;;9.72;65.61
57791;BME280;43621;51.798;21.588;2023-05-18T04:11:46;100683.23;;;9.80;65.51
57791;BME280;43621;51.798;21.588;2023-05-18T04:15:47;100688.41;;;9.87;65.47
57791;BME280;43621;51.798;21.588;2023-05-18T04:19:49;100693.73;;;10.00;65.46
57791;BME280;43621;51.798;21.588;2023-05-18T04:23:50;100694.45;;;10.09;65.14
57791;BME280;43621;51.798;21.588;2023-05-18T04:27:52;100700.83;;;10.14;64.97
57791;BME280;43621;51.798;21.588;2023-05-18T04:31:57;100704.05;;;10.27;65.05
57791;BME280;43621;51.798;21.588;2023-05-18T04:36:00;100704.45;;;10.37;64.69
57791;BME280;43621;51.798;21.588;2023-05-18T04:40:06;100705.63;;;10.44;64.57
57791;BME280;43621;51.798;21.588;2023-05-18T04:44:07;100706.45;;;10.54;64.48
57791;BME280;43621;51.798;21.588;2023-05-18T04:48:09;100709.93;;;10.63;64.13
57791;BME280;43621;51.798;21.588;2023-05-18T04:52:10;100711.04;;;10.71;63.82
57791;BME280;43621;51.798;21.588;2023-05-18T04:56:11;100716.02;;;10.85;63.79
57791;BME280;43621;51.798;21.588;2023-05-18T05:00:14;100713.00;;;10.96;63.38
57791;BME280;43621;51.798;21.588;2023-05-18T05:04:15;100713.92;;;11.10;63.13
57791;BME280;43621;51.798;21.588;2023-05-18T05:08:16;100713.14;;;11.24;63.00
57791;BME280;43621;51.798;21.588;2023-05-18T05:12:18;100719.65;;;11.42;63.05
57791;BME280;43621;51.798;21.588;2023-05-18T05:16:19;100725.24;;;11.61;62.60
57791;BME280;43621;51.798;21.588;2023-05-18T05:20:20;100726.56;;;11.70;61.98
57791;BME280;43621;51.798;21.588;2023-05-18T05:24:21;100733.77;;;11.72;61.70
57791;BME280;43621;51.798;21.588;2023-05-18T05:28:22;100736.30;;;11.78;61.48
57791;BME280;43621;51.798;21.588;2023-05-18T05:32:24;100730.98;;;11.84;61.22
57791;BME280;43621;51.798;21.588;2023-05-18T05:36:25;100731.59;;;11.94;61.18
57791;BME280;43621;51.798;21.588;2023-05-18T05:40:26;100734.98;;;12.06;61.04
57791;BME280;43621;51.798;21.588;2023-05-18T05:44:27;100738.80;;;12.18;60.86
57791;BME280;43621;51.798;21.588;2023-05-18T05:48:28;100739.86;;;12.28;60.57
57791;BME280;43621;51.798;21.588;2023-05-18T05:52:30;100744.04;;;12.46;60.56
57791;BME280;43621;51.798;21.588;2023-05-18T05:56:31;100745.26;;;12.65;60.03
57791;BME280;43621;51.798;21.588;2023-05-18T06:00:32;100744.16;;;12.81;60.04
57791;BME280;43621;51.798;21.588;2023-05-18T06:04:33;100746.19;;;13.09;59.95
57791;BME280;43621;51.798;21.588;2023-05-18T06:08:34;100748.86;;;13.42;59.64
57791;BME280;43621;51.798;21.588;2023-05-18T06:12:36;100750.41;;;13.65;59.02
57791;BME280;43621;51.798;21.588;2023-05-18T06:16:37;100749.36;;;13.80;58.57
57791;BME280;43621;51.798;21.588;2023-05-18T06:20:38;100749.63;;;13.94;58.18
57791;BME280;43621;51.798;21.588;2023-05-18T06:24:40;100755.16;;;14.08;58.18
57791;BME280;43621;51.798;21.588;2023-05-18T06:28:41;100754.85;;;14.17;57.72
57791;BME280;43621;51.798;21.588;2023-05-18T06:32:43;100760.00;;;14.18;57.25
57791;BME280;43621;51.798;21.588;2023-05-18T06:36:44;100764.50;;;14.17;56.52
57791;BME280;43621;51.798;21.588;2023-05-18T06:40:46;100766.62;;;14.04;56.05
57791;BME280;43621;51.798;21.588;2023-05-18T06:44:47;100770.30;;;13.95;55.89
57791;BME280;43621;51.798;21.588;2023-05-18T06:48:50;100782.23;;;13.95;55.86
57791;BME280;43621;51.798;21.588;2023-05-18T06:52:51;100779.88;;;13.90;55.63
57791;BME280;43621;51.798;21.588;2023-05-18T06:56:53;100780.51;;;13.94;55.92
57791;BME280;43621;51.798;21.588;2023-05-18T07:00:54;100787.96;;;14.04;55.96
57791;BME280;43621;51.798;21.588;2023-05-18T07:04:55;100788.08;;;14.13;55.56
57791;BME280;43621;51.798;21.588;2023-05-18T07:08:56;100790.89;;;14.19;55.67
57791;BME280;43621;51.798;21.588;2023-05-18T07:12:57;100794.30;;;14.25;55.28
57791;BME280;43621;51.798;21.588;2023-05-18T07:16:58;100798.51;;;14.20;54.89
57791;BME280;43621;51.798;21.588;2023-05-18T07:20:59;100800.42;;;14.20;54.98
57791;BME280;43621;51.798;21.588;2023-05-18T07:25:00;100801.66;;;14.25;54.91
57791;BME280;43621;51.798;21.588;2023-05-18T07:29:01;100799.48;;;14.37;54.87
57791;BME280;43621;51.798;21.588;2023-05-18T07:33:03;100806.41;;;14.47;54.46
57791;BME280;43621;51.798;21.588;2023-05-18T07:37:04;100810.55;;;14.56;54.63
57791;BME280;43621;51.798;21.588;2023-05-18T07:41:05;100816.59;;;14.65;53.99
57791;BME280;43621;51.798;21.588;2023-05-18T07:45:06;100817.77;;;14.62;53.79
57791;BME280;43621;51.798;21.588;2023-05-18T07:49:08;100819.61;;;14.72;54.03
57791;BME280;43621;51.798;21.588;2023-05-18T07:53:09;100817.88;;;14.84;53.91
57791;BME280;43621;51.798;21.588;2023-05-18T07:57:10;100815.77;;;14.90;53.75
57791;BME280;43621;51.798;21.588;2023-05-18T08:01:11;100829.77;;;14.90;53.40
57791;BME280;43621;51.798;21.588;2023-05-18T08:05:12;100833.44;;;14.85;53.15
57791;BME280;43621;51.798;21.588;2023-05-18T08:09:13;100837.88;;;14.81;52.92
57791;BME280;43621;51.798;21.588;2023-05-18T08:13:14;100843.57;;;14.78;52.99
57791;BME280;43621;51.798;21.588;2023-05-18T08:17:16;100841.55;;;14.79;53.02
57791;BME280;43621;51.798;21.588;2023-05-18T08:21:18;100840.13;;;14.74;52.67
57791;BME280;43621;51.798;21.588;2023-05-18T08:25:19;100840.77;;;14.73;52.63
57791;BME280;43621;51.798;21.588;2023-05-18T08:29:21;100841.13;;;14.78;52.76
57791;BME280;43621;51.798;21.588;2023-05-18T08:33:22;100840.25;;;14.82;52.42
57791;BME280;43621;51.798;21.588;2023-05-18T08:37:23;100839.92;;;14.87;52.45
57791;BME280;43621;51.798;21.588;2023-05-18T08:41:31;100843.38;;;14.91;52.00
57791;BME280;43621;51.798;21.588;2023-05-18T08:45:40;100842.23;;;14.87;51.72
57791;BME280;43621;51.798;21.588;2023-05-18T08:49:47;100845.81;;;14.86;52.00
57791;BME280;43621;51.798;21.588;2023-05-18T08:53:52;100849.94;;;15.04;52.38
57791;BME280;43621;51.798;21.588;2023-05-18T08:57:56;100849.73;;;15.20;52.07
57791;BME280;43621;51.798;21.588;2023-05-18T09:01:59;100853.36;;;15.33;51.91
57791;BME280;43621;51.798;21.588;2023-05-18T09:06:02;100850.80;;;15.42;51.79
57791;BME280;43621;51.798;21.588;2023-05-18T09:10:04;100849.19;;;15.56;51.44
57791;BME280;43621;51.798;21.588;2023-05-18T09:14:06;100848.67;;;15.62;50.81
57791;BME280;43621;51.798;21.588;2023-05-18T09:18:07;100846.23;;;15.56;50.21
57791;BME280;43621;51.798;21.588;2023-05-18T09:22:08;100849.39;;;15.50;50.63
57791;BME280;43621;51.798;21.588;2023-05-18T09:26:10;100848.08;;;15.53;50.40
57791;BME280;43621;51.798;21.588;2023-05-18T09:30:12;100842.61;;;15.57;50.80
57791;BME280;43621;51.798;21.588;2023-05-18T09:34:14;100840.00;;;15.66;50.47
57791;BME280;43621;51.798;21.588;2023-05-18T09:38:18;100839.36;;;15.69;50.51
57791;BME280;43621;51.798;21.588;2023-05-18T09:42:22;100839.77;;;15.74;50.38
57791;BME280;43621;51.798;21.588;2023-05-18T09:46:30;100839.29;;;15.80;50.40
57791;BME280;43621;51.798;21.588;2023-05-18T09:50:32;100840.25;;;15.99;50.49
57791;BME280;43621;51.798;21.588;2023-05-18T09:54:34;100836.90;;;16.14;49.87
57791;BME280;43621;51.798;21.588;2023-05-18T09:58:38;100838.91;;;16.25;49.85
57791;BME280;43621;51.798;21.588;2023-05-18T10:02:43;100839.96;;;16.48;49.81
57791;BME280;43621;51.798;21.588;2023-05-18T10:06:48;100845.36;;;16.64;49.43
57791;BME280;43621;51.798;21.588;2023-05-18T10:10:50;100845.30;;;16.78;49.29
57791;BME280;43621;51.798;21.588;2023-05-18T10:14:51;100845.31;;;16.94;49.06
57791;BME280;43621;51.798;21.588;2023-05-18T10:18:53;100852.05;;;16.99;48.35
57791;BME280;43621;51.798;21.588;2023-05-18T10:22:57;100850.30;;;16.94;48.14
57791;BME280;43621;51.798;21.588;2023-05-18T10:27:00;100846.55;;;17.02;48.25
57791;BME280;43621;51.798;21.588;2023-05-18T10:31:05;100851.34;;;17.17;48.30
57791;BME280;43621;51.798;21.588;2023-05-18T10:35:09;100853.85;;;17.33;47.81
57791;BME280;43621;51.798;21.588;2023-05-18T10:39:10;100852.64;;;17.41;47.48
57791;BME280;43621;51.798;21.588;2023-05-18T10:43:12;100855.79;;;17.60;47.52
57791;BME280;43621;51.798;21.588;2023-05-18T10:47:14;100855.75;;;17.78;47.25
57791;BME280;43621;51.798;21.588;2023-05-18T10:51:15;100853.33;;;17.92;47.05
57791;BME280;43621;51.798;21.588;2023-05-18T10:55:17;100854.84;;;18.07;46.69
57791;BME280;43621;51.798;21.588;2023-05-18T10:59:20;100854.23;;;18.11;46.29
57791;BME280;43621;51.798;21.588;2023-05-18T11:03:24;100852.69;;;18.06;46.44
57791;BME280;43621;51.798;21.588;2023-05-18T11:07:26;100846.98;;;18.03;46.57
57791;BME280;43621;51.798;21.588;2023-05-18T11:11:49;100845.38;;;17.94;46.64
57791;BME280;43621;51.798;21.588;2023-05-18T11:24:28;100846.78;;;17.61;46.44
57791;BME280;43621;51.798;21.588;2023-05-18T11:28:29;100846.40;;;17.50;46.66
57791;BME280;43621;51.798;21.588;2023-05-18T11:32:31;100848.92;;;17.53;46.90
57791;BME280;43621;51.798;21.588;2023-05-18T11:36:43;100847.83;;;17.53;46.76
57791;BME280;43621;51.798;21.588;2023-05-18T11:40:49;100844.30;;;17.38;46.65
57791;BME280;43621;51.798;21.588;2023-05-18T11:44:52;100845.34;;;17.30;46.96
57791;BME280;43621;51.798;21.588;2023-05-18T11:48:55;100848.98;;;17.17;46.85
57791;BME280;43621;51.798;21.588;2023-05-18T11:52:57;100847.88;;;16.99;47.02
57791;BME280;43621;51.798;21.588;2023-05-18T11:56:59;100854.09;;;16.80;47.10
57791;BME280;43621;51.798;21.588;2023-05-18T12:01:01;100858.14;;;16.70;47.31
57791;BME280;43621;51.798;21.588;2023-05-18T12:05:06;100859.89;;;16.69;47.53
57791;BME280;43621;51.798;21.588;2023-05-18T12:09:08;100865.55;;;16.63;47.66
57791;BME280;43621;51.798;21.588;2023-05-18T12:13:09;100869.12;;;16.56;47.68
57791;BME280;43621;51.798;21.588;2023-05-18T12:17:10;100874.18;;;16.56;47.89
57791;BME280;43621;51.798;21.588;2023-05-18T12:21:12;100874.43;;;16.54;47.91
57791;BME280;43621;51.798;21.588;2023-05-18T12:25:13;100872.08;;;16.41;47.93
57791;BME280;43621;51.798;21.588;2023-05-18T12:29:14;100876.11;;;16.27;47.94
57791;BME280;43621;51.798;21.588;2023-05-18T12:33:19;100878.70;;;16.19;48.27
57791;BME280;43621;51.798;21.588;2023-05-18T12:37:24;100883.50;;;16.11;48.27
57791;BME280;43621;51.798;21.588;2023-05-18T12:41:25;100878.71;;;16.10;48.37
57791;BME280;43621;51.798;21.588;2023-05-18T12:45:29;100878.21;;;16.10;48.56
57791;BME280;43621;51.798;21.588;2023-05-18T12:49:37;100877.36;;;16.10;48.56
57791;BME280;43621;51.798;21.588;2023-05-18T12:53:42;100876.84;;;16.08;48.70
57791;BME280;43621;51.798;21.588;2023-05-18T12:57:44;100875.64;;;16.02;48.53
57791;BME280;43621;51.798;21.588;2023-05-18T13:01:46;100874.48;;;15.93;48.73
57791;BME280;43621;51.798;21.588;2023-05-18T13:06:01;100871.31;;;15.93;48.80
57791;BME280;43621;51.798;21.588;2023-05-18T13:10:07;100868.62;;;15.95;48.82
57791;BME280;43621;51.798;21.588;2023-05-18T13:14:09;100869.92;;;15.97;48.71
57791;BME280;43621;51.798;21.588;2023-05-18T13:18:10;100870.11;;;16.03;48.99
57791;BME280;43621;51.798;21.588;2023-05-18T13:22:14;100870.38;;;16.04;48.68
57791;BME280;43621;51.798;21.588;2023-05-18T13:26:16;100870.98;;;15.96;48.49
57791;BME280;43621;51.798;21.588;2023-05-18T13:30:19;100869.53;;;15.93;48.54
57791;BME280;43621;51.798;21.588;2023-05-18T13:34:20;100869.77;;;15.99;48.95
57791;BME280;43621;51.798;21.588;2023-05-18T13:38:21;100868.73;;;16.04;49.01
57791;BME280;43621;51.798;21.588;2023-05-18T13:42:22;100865.39;;;16.09;49.20
57791;BME280;43621;51.798;21.588;2023-05-18T13:46:23;100861.45;;;16.17;49.18
57791;BME280;43621;51.798;21.588;2023-05-18T13:50:25;100865.07;;;16.19;49.14
57791;BME280;43621;51.798;21.588;2023-05-18T13:54:26;100863.90;;;16.22;49.21
57791;BME280;43621;51.798;21.588;2023-05-18T13:58:27;100865.52;;;16.27;49.40
57791;BME280;43621;51.798;21.588;2023-05-18T14:02:28;100866.66;;;16.35;49.36
57791;BME280;43621;51.798;21.588;2023-05-18T14:06:30;100870.02;;;16.33;49.23
57791;BME280;43621;51.798;21.588;2023-05-18T14:10:31;100867.34;;;16.26;49.13
57791;BME280;43621;51.798;21.588;2023-05-18T14:14:32;100870.45;;;16.24;49.32
57791;BME280;43621;51.798;21.588;2023-05-18T14:18:33;100873.77;;;16.22;49.59
57791;BME280;43621;51.798;21.588;2023-05-18T14:22:34;100874.20;;;16.11;49.60
57791;BME280;43621;51.798;21.588;2023-05-18T14:26:36;100872.80;;;16.01;49.72
57791;BME280;43621;51.798;21.588;2023-05-18T14:30:37;100872.29;;;15.86;49.64
57791;BME280;43621;51.798;21.588;2023-05-18T14:34:38;100874.29;;;15.74;49.82
57791;BME280;43621;51.798;21.588;2023-05-18T14:38:39;100870.95;;;15.59;49.82
57791;BME280;43621;51.798;21.588;2023-05-18T14:42:43;100871.20;;;15.47;49.92
57791;BME280;43621;51.798;21.588;2023-05-18T14:46:44;100872.63;;;15.38;50.04
57791;BME280;43621;51.798;21.588;2023-05-18T14:50:45;100870.90;;;15.27;50.16
57791;BME280;43621;51.798;21.588;2023-05-18T14:54:46;100869.36;;;15.21;50.52
57791;BME280;43621;51.798;21.588;2023-05-18T14:58:48;100869.41;;;15.17;50.52
57791;BME280;43621;51.798;21.588;2023-05-18T15:02:49;100870.48;;;15.09;50.48
57791;BME280;43621;51.798;21.588;2023-05-18T15:06:50;100871.77;;;14.96;50.63
57791;BME280;43621;51.798;21.588;2023-05-18T15:10:52;100868.21;;;14.85;50.68
57791;BME280;43621;51.798;21.588;2023-05-18T15:14:53;100869.83;;;14.74;50.78
57791;BME280;43621;51.798;21.588;2023-05-18T15:18:54;100872.16;;;14.59;50.85
57791;BME280;43621;51.798;21.588;2023-05-18T15:22:56;100869.77;;;14.43;50.94
57791;BME280;43621;51.798;21.588;2023-05-18T15:26:57;100868.27;;;14.30;51.23
57791;BME280;43621;51.798;21.588;2023-05-18T15:30:58;100865.55;;;14.20;51.51
57791;BME280;43621;51.798;21.588;2023-05-18T15:34:59;100870.14;;;14.12;51.82
57791;BME280;43621;51.798;21.588;2023-05-18T15:39:00;100864.70;;;14.03;51.89
57791;BME280;43621;51.798;21.588;2023-05-18T15:43:04;100866.01;;;13.92;52.13
57791;BME280;43621;51.798;21.588;2023-05-18T15:47:05;100868.78;;;13.83;52.42
57791;BME280;43621;51.798;21.588;2023-05-18T15:51:07;100868.40;;;13.73;52.71
57791;BME280;43621;51.798;21.588;2023-05-18T15:55:08;100866.18;;;13.61;52.86
57791;BME280;43621;51.798;21.588;2023-05-18T15:59:09;100866.35;;;13.52;53.26
57791;BME280;43621;51.798;21.588;2023-05-18T16:03:10;100866.78;;;13.45;53.62
57791;BME280;43621;51.798;21.588;2023-05-18T16:07:12;100866.71;;;13.38;53.68
57791;BME280;43621;51.798;21.588;2023-05-18T16:11:15;100869.34;;;13.30;54.23
57791;BME280;43621;51.798;21.588;2023-05-18T16:15:16;100870.97;;;13.28;54.57
57791;BME280;43621;51.798;21.588;2023-05-18T16:19:18;100868.59;;;13.27;54.88
57791;BME280;43621;51.798;21.588;2023-05-18T16:23:19;100868.42;;;13.27;55.17
57791;BME280;43621;51.798;21.588;2023-05-18T16:27:20;100864.84;;;13.26;55.52
57791;BME280;43621;51.798;21.588;2023-05-18T16:31:22;100867.08;;;13.22;55.57
57791;BME280;43621;51.798;21.588;2023-05-18T16:35:23;100869.16;;;13.17;55.91
57791;BME280;43621;51.798;21.588;2023-05-18T16:39:24;100871.27;;;13.12;56.25
57791;BME280;43621;51.798;21.588;2023-05-18T16:43:25;100872.90;;;13.11;56.47
57791;BME280;43621;51.798;21.588;2023-05-18T16:47:26;100876.30;;;13.15;56.88
57791;BME280;43621;51.798;21.588;2023-05-18T16:51:28;100879.45;;;13.17;57.18
57791;BME280;43621;51.798;21.588;2023-05-18T16:55:29;100881.11;;;13.18;57.42
57791;BME280;43621;51.798;21.588;2023-05-18T16:59:30;100880.18;;;13.17;57.55
57791;BME280;43621;51.798;21.588;2023-05-18T17:03:33;100880.62;;;13.13;57.77
57791;BME280;43621;51.798;21.588;2023-05-18T17:07:35;100881.02;;;13.07;58.01
57791;BME280;43621;51.798;21.588;2023-05-18T17:11:36;100881.90;;;13.01;58.22
57791;BME280;43621;51.798;21.588;2023-05-18T17:15:37;100886.75;;;12.97;58.67
57791;BME280;43621;51.798;21.588;2023-05-18T17:19:39;100885.91;;;12.97;59.06
57791;BME280;43621;51.798;21.588;2023-05-18T17:23:41;100883.89;;;12.98;59.18
57791;BME280;43621;51.798;21.588;2023-05-18T17:27:42;100887.05;;;12.96;59.38
57791;BME280;43621;51.798;21.588;2023-05-18T17:31:43;100883.52;;;12.96;59.63
57791;BME280;43621;51.798;21.588;2023-05-18T17:35:45;100884.99;;;12.95;59.83
57791;BME280;43621;51.798;21.588;2023-05-18T17:39:46;100886.58;;;12.89;60.03
57791;BME280;43621;51.798;21.588;2023-05-18T17:43:47;100890.01;;;12.82;60.17
57791;BME280;43621;51.798;21.588;2023-05-18T17:47:48;100893.61;;;12.71;60.28
57791;BME280;43621;51.798;21.588;2023-05-18T17:51:49;100894.02;;;12.60;60.43
57791;BME280;43621;51.798;21.588;2023-05-18T17:55:52;100901.97;;;12.53;60.63
57791;BME280;43621;51.798;21.588;2023-05-18T17:59:53;100904.92;;;12.47;60.94
57791;BME280;43621;51.798;21.588;2023-05-18T18:03:55;100908.02;;;12.43;61.02
57791;BME280;43621;51.798;21.588;2023-05-18T18:07:56;100908.02;;;12.43;61.31
57791;BME280;43621;51.798;21.588;2023-05-18T18:11:58;100908.00;;;12.44;61.40
57791;BME280;43621;51.798;21.588;2023-05-18T18:16:00;100914.94;;;12.40;61.55
57791;BME280;43621;51.798;21.588;2023-05-18T18:20:01;100920.50;;;12.35;61.88
57791;BME280;43621;51.798;21.588;2023-05-18T18:24:03;100919.16;;;12.30;61.94
57791;BME280;43621;51.798;21.588;2023-05-18T18:28:04;100920.06;;;12.27;62.16
57791;BME280;43621;51.798;21.588;2023-05-18T18:32:07;100922.64;;;12.26;62.22
57791;BME280;43621;51.798;21.588;2023-05-18T18:36:09;100924.75;;;12.24;62.43
57791;BME280;43621;51.798;21.588;2023-05-18T18:40:11;100926.39;;;12.25;62.52
57791;BME280;43621;51.798;21.588;2023-05-18T18:44:14;100927.23;;;12.25;62.48
57791;BME280;43621;51.798;21.588;2023-05-18T18:48:15;100931.33;;;12.27;62.65
57791;BME280;43621;51.798;21.588;2023-05-18T18:52:20;100936.09;;;12.26;62.71
57791;BME280;43621;51.798;21.588;2023-05-18T18:56:23;100936.48;;;12.24;63.01
57791;BME280;43621;51.798;21.588;2023-05-18T19:00:24;100943.25;;;12.20;63.09
57791;BME280;43621;51.798;21.588;2023-05-18T19:04:25;100950.50;;;12.17;63.19
57791;BME280;43621;51.798;21.588;2023-05-18T19:08:26;100951.06;;;12.15;63.34
57791;BME280;43621;51.798;21.588;2023-05-18T19:12:28;100950.73;;;12.14;63.53
57791;BME280;43621;51.798;21.588;2023-05-18T19:16:29;100950.05;;;12.16;63.64
57791;BME280;43621;51.798;21.588;2023-05-18T19:20:30;100952.31;;;12.16;63.70
57791;BME280;43621;51.798;21.588;2023-05-18T19:24:32;100955.90;;;12.15;64.03
57791;BME280;43621;51.798;21.588;2023-05-18T19:28:33;100957.75;;;12.14;64.15
57791;BME280;43621;51.798;21.588;2023-05-18T19:32:34;100961.10;;;12.12;64.37
57791;BME280;43621;51.798;21.588;2023-05-18T19:36:35;100964.22;;;12.08;64.37
57791;BME280;43621;51.798;21.588;2023-05-18T19:40:36;100966.47;;;12.06;64.43
57791;BME280;43621;51.798;21.588;2023-05-18T19:44:37;100968.25;;;12.04;64.54
57791;BME280;43621;51.798;21.588;2023-05-18T19:48:38;100968.02;;;12.02;64.63
57791;BME280;43621;51.798;21.588;2023-05-18T19:52:39;100965.09;;;12.04;64.86
57791;BME280;43621;51.798;21.588;2023-05-18T19:56:41;100966.55;;;12.09;65.02
57791;BME280;43621;51.798;21.588;2023-05-18T20:00:42;100970.78;;;12.13;65.17
57791;BME280;43621;51.798;21.588;2023-05-18T20:04:44;100971.22;;;12.12;65.17
57791;BME280;43621;51.798;21.588;2023-05-18T20:08:46;100975.55;;;12.09;65.22
57791;BME280;43621;51.798;21.588;2023-05-18T20:12:47;100982.00;;;12.03;65.39
57791;BME280;43621;51.798;21.588;2023-05-18T20:16:50;100982.75;;;12.00;65.42
57791;BME280;43621;51.798;21.588;2023-05-18T20:20:52;100987.11;;;12.00;65.38
57791;BME280;43621;51.798;21.588;2023-05-18T20:24:53;100993.32;;;11.99;65.45
57791;BME280;43621;51.798;21.588;2023-05-18T20:28:54;100995.28;;;11.99;65.59
57791;BME280;43621;51.798;21.588;2023-05-18T20:32:55;100994.26;;;11.96;65.65
57791;BME280;43621;51.798;21.588;2023-05-18T20:36:58;101000.83;;;11.91;65.64
57791;BME280;43621;51.798;21.588;2023-05-18T20:41:00;101003.02;;;11.87;65.86
57791;BME280;43621;51.798;21.588;2023-05-18T20:45:01;101005.29;;;11.82;65.91
57791;BME280;43621;51.798;21.588;2023-05-18T20:49:03;101006.61;;;11.79;65.88
57791;BME280;43621;51.798;21.588;2023-05-18T20:53:05;101003.02;;;11.76;65.79
57791;BME280;43621;51.798;21.588;2023-05-18T20:57:06;101002.04;;;11.75;65.83
57791;BME280;43621;51.798;21.588;2023-05-18T21:01:07;101000.11;;;11.73;66.07
57791;BME280;43621;51.798;21.588;2023-05-18T21:05:08;101000.64;;;11.73;66.06
57791;BME280;43621;51.798;21.588;2023-05-18T21:09:10;101000.75;;;11.73;66.19
57791;BME280;43621;51.798;21.588;2023-05-18T21:13:11;101006.03;;;11.71;66.19
57791;BME280;43621;51.798;21.588;2023-05-18T21:17:12;101009.41;;;11.68;66.19